sensor_id;sensor_type;location;lat;lon;timestamp;pressure;altitude;pressure_sealevel;temperature;humidity
56642;BME280;76646;51.506;5.304;2024-03-02T00:00:39;99566.44;;;7.73;nan
56642;BME280;76646;51.506;5.304;2024-03-02T00:03:25;99591.75;;;6.98;nan
56642;BME280;76646;51.506;5.304;2024-03-02T00:05:51;99518.38;;;6.29;nan
56642;BME280;76646;51.506;5.304;2024-03-02T00:08:26;99594.09;;;6.53;nan
56642;BME280;76646;51.506;5.304;2024-03-02T00:10:57;99602.94;;;6.52;nan
56642;BME280;76646;51.506;5.304;2024-03-02T00:13:24;99524.81;;;5.95;nan
56642;BME280;76646;51.506;5.304;2024-03-02T00:15:56;99609.25;;;6.39;nan
56642;BME280;76646;51.506;5.304;2024-03-02T00:18:33;99594.19;;;6.32;nan
56642;BME280;76646;51.506;5.304;2024-03-02T00:21:00;99589.09;;;6.30;nan
56642;BME280;76646;51.506;5.304;2024-03-02T00:23:30;99574.00;;;6.22;nan
56642;BME280;76646;51.506;5.304;2024-03-02T00:26:01;99583.41;;;6.15;nan
56642;BME280;76646;51.506;5.304;2024-03-02T00:28:34;99615.84;;;6.24;nan
56642;BME280;76646;51.506;5.304;2024-03-02T00:31:08;99587.50;;;6.08;nan
56642;BME280;76646;51.506;5.304;2024-03-02T00:33:43;99598.72;;;6.20;nan
56642;BME280;76646;51.506;5.304;2024-03-02T00:36:12;99589.03;;;6.11;nan
56642;BME280;76646;51.506;5.304;2024-03-02T00:38:49;99602.16;;;6.20;nan
56642;BME280;76646;51.506;5.304;2024-03-02T00:41:20;99614.88;;;6.25;nan
56642;BME280;76646;51.506;5.304;2024-03-02T00:46:19;99580.47;;;6.09;nan
56642;BME280;76646;51.506;5.304;2024-03-02T00:48:57;99591.81;;;6.19;nan
56642;BME280;76646;51.506;5.304;2024-03-02T00:51:29;99574.13;;;6.11;nan
56642;BME280;76646;51.506;5.304;2024-03-02T00:53:57;99597.88;;;6.19;nan
56642;BME280;76646;51.506;5.304;2024-03-02T00:56:26;99562.38;;;5.96;nan
56642;BME280;76646;51.506;5.304;2024-03-02T00:58:53;99604.94;;;6.19;nan
56642;BME280;76646;51.506;5.304;2024-03-02T01:01:20;99618.03;;;6.19;nan
56642;BME280;76646;51.506;5.304;2024-03-02T01:03:46;99611.00;;;6.10;nan
56642;BME280;76646;51.506;5.304;2024-03-02T01:06:13;99610.03;;;6.20;nan
56642;BME280;76646;51.506;5.304;2024-03-02T01:08:38;99582.53;;;6.05;nan
56642;BME280;76646;51.506;5.304;2024-03-02T01:11:06;99599.25;;;6.14;nan
56642;BME280;76646;51.506;5.304;2024-03-02T01:13:32;99583.25;;;6.07;nan
56642;BME280;76646;51.506;5.304;2024-03-02T01:15:58;99625.50;;;6.23;nan
56642;BME280;76646;51.506;5.304;2024-03-02T01:18:24;99598.44;;;6.13;nan
56642;BME280;76646;51.506;5.304;2024-03-02T01:20:53;99609.63;;;6.15;nan
56642;BME280;76646;51.506;5.304;2024-03-02T01:23:22;99607.13;;;6.23;nan
56642;BME280;76646;51.506;5.304;2024-03-02T01:25:49;99614.59;;;6.28;nan
56642;BME280;76646;51.506;5.304;2024-03-02T01:28:15;99595.81;;;6.13;nan
56642;BME280;76646;51.506;5.304;2024-03-02T01:30:41;99635.16;;;6.23;nan
56642;BME280;76646;51.506;5.304;2024-03-02T01:33:07;99576.16;;;5.98;nan
56642;BME280;76646;51.506;5.304;2024-03-02T01:35:33;99611.44;;;6.24;nan
56642;BME280;76646;51.506;5.304;2024-03-02T01:38:00;99626.34;;;6.34;nan
56642;BME280;76646;51.506;5.304;2024-03-02T01:40:26;99617.22;;;6.18;nan
56642;BME280;76646;51.506;5.304;2024-03-02T01:42:53;99625.81;;;6.40;nan
56642;BME280;76646;51.506;5.304;2024-03-02T01:45:24;99617.66;;;6.33;nan
56642;BME280;76646;51.506;5.304;2024-03-02T01:47:50;99625.38;;;6.25;nan
56642;BME280;76646;51.506;5.304;2024-03-02T01:50:25;99598.81;;;6.09;nan
56642;BME280;76646;51.506;5.304;2024-03-02T01:52:50;99607.50;;;6.09;nan
56642;BME280;76646;51.506;5.304;2024-03-02T01:55:16;99605.00;;;5.98;nan
56642;BME280;76646;51.506;5.304;2024-03-02T01:57:43;99641.22;;;6.23;nan
56642;BME280;76646;51.506;5.304;2024-03-02T02:00:11;99638.19;;;6.18;nan
56642;BME280;76646;51.506;5.304;2024-03-02T02:02:36;99638.75;;;6.22;nan
56642;BME280;76646;51.506;5.304;2024-03-02T02:05:04;99627.44;;;6.21;nan
56642;BME280;76646;51.506;5.304;2024-03-02T02:07:30;99613.59;;;6.10;nan
56642;BME280;76646;51.506;5.304;2024-03-02T02:10:01;99636.69;;;6.16;nan
56642;BME280;76646;51.506;5.304;2024-03-02T02:12:27;99635.69;;;6.07;nan
56642;BME280;76646;51.506;5.304;2024-03-02T02:14:53;99643.41;;;6.09;nan
56642;BME280;76646;51.506;5.304;2024-03-02T02:17:19;99591.13;;;5.86;nan
56642;BME280;76646;51.506;5.304;2024-03-02T02:19:47;99632.91;;;6.09;nan
56642;BME280;76646;51.506;5.304;2024-03-02T02:22:13;99607.75;;;5.96;nan
56642;BME280;76646;51.506;5.304;2024-03-02T02:24:42;99635.84;;;6.15;nan
56642;BME280;76646;51.506;5.304;2024-03-02T02:27:08;99601.69;;;5.96;nan
56642;BME280;76646;51.506;5.304;2024-03-02T02:29:39;99510.53;;;5.38;nan
56642;BME280;76646;51.506;5.304;2024-03-02T02:32:05;99620.34;;;6.02;nan
56642;BME280;76646;51.506;5.304;2024-03-02T02:34:31;99621.47;;;6.10;nan
56642;BME280;76646;51.506;5.304;2024-03-02T02:36:57;99597.63;;;5.92;nan
56642;BME280;76646;51.506;5.304;2024-03-02T02:39:23;99602.88;;;5.92;nan
56642;BME280;76646;51.506;5.304;2024-03-02T02:41:49;99618.16;;;6.08;nan
56642;BME280;76646;51.506;5.304;2024-03-02T02:44:15;99581.81;;;6.03;nan
56642;BME280;76646;51.506;5.304;2024-03-02T02:46:41;99577.13;;;5.76;nan
56642;BME280;76646;51.506;5.304;2024-03-02T02:49:07;99623.50;;;6.06;nan
56642;BME280;76646;51.506;5.304;2024-03-02T02:51:32;99609.16;;;6.00;nan
56642;BME280;76646;51.506;5.304;2024-03-02T02:53:59;99615.63;;;5.96;nan
56642;BME280;76646;51.506;5.304;2024-03-02T02:56:26;99605.97;;;5.97;nan
56642;BME280;76646;51.506;5.304;2024-03-02T02:58:55;99617.72;;;6.02;nan
56642;BME280;76646;51.506;5.304;2024-03-02T03:01:21;99614.94;;;6.04;nan
56642;BME280;76646;51.506;5.304;2024-03-02T03:03:47;99617.31;;;6.07;nan
56642;BME280;76646;51.506;5.304;2024-03-02T03:06:13;99598.22;;;5.95;nan
56642;BME280;76646;51.506;5.304;2024-03-02T03:08:41;99621.44;;;6.00;nan
56642;BME280;76646;51.506;5.304;2024-03-02T03:11:08;99599.19;;;5.94;nan
56642;BME280;76646;51.506;5.304;2024-03-02T03:13:34;99609.69;;;5.94;nan
56642;BME280;76646;51.506;5.304;2024-03-02T03:16:00;99629.59;;;6.07;nan
56642;BME280;76646;51.506;5.304;2024-03-02T03:18:32;99608.13;;;5.92;nan
56642;BME280;76646;51.506;5.304;2024-03-02T03:20:59;99604.22;;;5.86;nan
56642;BME280;76646;51.506;5.304;2024-03-02T03:23:26;99621.31;;;6.01;nan
56642;BME280;76646;51.506;5.304;2024-03-02T03:25:53;99632.75;;;6.00;nan
56642;BME280;76646;51.506;5.304;2024-03-02T03:28:19;99623.94;;;6.01;nan
56642;BME280;76646;51.506;5.304;2024-03-02T03:30:47;99581.38;;;5.67;nan
56642;BME280;76646;51.506;5.304;2024-03-02T03:33:13;99631.38;;;6.06;nan
56642;BME280;76646;51.506;5.304;2024-03-02T03:35:40;99617.88;;;5.80;nan
56642;BME280;76646;51.506;5.304;2024-03-02T03:38:06;99628.34;;;5.80;nan
56642;BME280;76646;51.506;5.304;2024-03-02T03:40:31;99647.66;;;6.00;nan
56642;BME280;76646;51.506;5.304;2024-03-02T03:42:58;99621.34;;;5.90;nan
56642;BME280;76646;51.506;5.304;2024-03-02T03:45:25;99640.50;;;6.02;nan
56642;BME280;76646;51.506;5.304;2024-03-02T03:47:53;99616.44;;;5.97;nan
56642;BME280;76646;51.506;5.304;2024-03-02T03:50:19;99624.88;;;6.00;nan
56642;BME280;76646;51.506;5.304;2024-03-02T03:52:45;99649.75;;;6.06;nan
56642;BME280;76646;51.506;5.304;2024-03-02T03:55:11;99624.88;;;6.00;nan
56642;BME280;76646;51.506;5.304;2024-03-02T03:57:38;99638.13;;;5.99;nan
56642;BME280;76646;51.506;5.304;2024-03-02T04:00:07;99635.41;;;6.10;nan
56642;BME280;76646;51.506;5.304;2024-03-02T04:02:34;99641.22;;;6.14;nan
56642;BME280;76646;51.506;5.304;2024-03-02T04:05:00;99637.44;;;6.07;nan
56642;BME280;76646;51.506;5.304;2024-03-02T04:07:26;99631.38;;;6.06;nan
56642;BME280;76646;51.506;5.304;2024-03-02T04:09:52;99640.94;;;6.07;nan
56642;BME280;76646;51.506;5.304;2024-03-02T04:12:18;99639.66;;;6.01;nan
56642;BME280;76646;51.506;5.304;2024-03-02T04:14:44;99636.78;;;5.84;nan
56642;BME280;76646;51.506;5.304;2024-03-02T04:17:10;99652.59;;;5.93;nan
56642;BME280;76646;51.506;5.304;2024-03-02T04:19:35;99644.34;;;5.77;nan
56642;BME280;76646;51.506;5.304;2024-03-02T04:22:01;99633.41;;;5.72;nan
56642;BME280;76646;51.506;5.304;2024-03-02T04:24:27;99651.41;;;5.86;nan
56642;BME280;76646;51.506;5.304;2024-03-02T04:26:53;99652.13;;;5.88;nan
56642;BME280;76646;51.506;5.304;2024-03-02T04:29:19;99622.94;;;5.72;nan
56642;BME280;76646;51.506;5.304;2024-03-02T04:31:44;99659.38;;;5.96;nan
56642;BME280;76646;51.506;5.304;2024-03-02T04:34:14;99644.63;;;5.84;nan
56642;BME280;76646;51.506;5.304;2024-03-02T04:36:40;99661.72;;;5.99;nan
56642;BME280;76646;51.506;5.304;2024-03-02T04:39:06;99657.03;;;6.02;nan
56642;BME280;76646;51.506;5.304;2024-03-02T04:41:35;99661.31;;;6.03;nan
56642;BME280;76646;51.506;5.304;2024-03-02T04:44:00;99660.06;;;5.98;nan
56642;BME280;76646;51.506;5.304;2024-03-02T04:46:27;99655.78;;;5.97;nan
56642;BME280;76646;51.506;5.304;2024-03-02T04:48:54;99620.16;;;5.73;nan
56642;BME280;76646;51.506;5.304;2024-03-02T04:51:23;99617.38;;;5.65;nan
56642;BME280;76646;51.506;5.304;2024-03-02T04:53:53;99637.94;;;5.70;nan
56642;BME280;76646;51.506;5.304;2024-03-02T04:56:19;99665.88;;;5.80;nan
56642;BME280;76646;51.506;5.304;2024-03-02T04:58:51;99608.72;;;5.44;nan
56642;BME280;76646;51.506;5.304;2024-03-02T05:01:18;99637.56;;;5.53;nan
56642;BME280;76646;51.506;5.304;2024-03-02T05:03:43;99658.66;;;5.73;nan
56642;BME280;76646;51.506;5.304;2024-03-02T05:06:10;99654.00;;;5.55;nan
56642;BME280;76646;51.506;5.304;2024-03-02T05:08:35;99645.00;;;5.48;nan
56642;BME280;76646;51.506;5.304;2024-03-02T05:11:01;99652.84;;;5.48;nan
56642;BME280;76646;51.506;5.304;2024-03-02T05:13:47;99661.09;;;5.44;nan
56642;BME280;76646;51.506;5.304;2024-03-02T05:16:13;99653.31;;;5.32;nan
56642;BME280;76646;51.506;5.304;2024-03-02T05:18:39;99663.78;;;5.32;nan
56642;BME280;76646;51.506;5.304;2024-03-02T05:21:06;99666.91;;;5.47;nan
56642;BME280;76646;51.506;5.304;2024-03-02T05:23:31;99681.28;;;5.53;nan
56642;BME280;76646;51.506;5.304;2024-03-02T05:25:59;99690.88;;;5.64;nan
56642;BME280;76646;51.506;5.304;2024-03-02T05:28:26;99695.59;;;5.70;nan
56642;BME280;76646;51.506;5.304;2024-03-02T05:30:53;99645.41;;;5.44;nan
56642;BME280;76646;51.506;5.304;2024-03-02T05:33:19;99684.56;;;5.66;nan
56642;BME280;76646;51.506;5.304;2024-03-02T05:35:48;99696.63;;;5.78;nan
56642;BME280;76646;51.506;5.304;2024-03-02T05:38:15;99688.63;;;5.80;nan
56642;BME280;76646;51.506;5.304;2024-03-02T05:40:42;99676.56;;;5.68;nan
56642;BME280;76646;51.506;5.304;2024-03-02T05:43:08;99707.03;;;5.90;nan
56642;BME280;76646;51.506;5.304;2024-03-02T05:45:34;99709.38;;;5.93;nan
56642;BME280;76646;51.506;5.304;2024-03-02T05:47:59;99704.81;;;5.85;nan
56642;BME280;76646;51.506;5.304;2024-03-02T05:50:26;99705.22;;;6.01;nan
56642;BME280;76646;51.506;5.304;2024-03-02T05:52:52;99591.09;;;5.25;nan
56642;BME280;76646;51.506;5.304;2024-03-02T05:55:21;99669.66;;;5.67;nan
56642;BME280;76646;51.506;5.304;2024-03-02T05:57:46;99702.44;;;5.82;nan
56642;BME280;76646;51.506;5.304;2024-03-02T06:00:28;99697.72;;;5.76;nan
56642;BME280;76646;51.506;5.304;2024-03-02T06:02:56;99689.41;;;5.50;nan
56642;BME280;76646;51.506;5.304;2024-03-02T06:05:23;99669.78;;;5.44;nan
56642;BME280;76646;51.506;5.304;2024-03-02T06:07:48;99685.16;;;5.49;nan
56642;BME280;76646;51.506;5.304;2024-03-02T06:10:14;99709.84;;;5.56;nan
56642;BME280;76646;51.506;5.304;2024-03-02T06:12:40;99698.63;;;5.44;nan
56642;BME280;76646;51.506;5.304;2024-03-02T06:15:09;99704.81;;;5.43;nan
56642;BME280;76646;51.506;5.304;2024-03-02T06:17:38;99702.56;;;5.39;nan
56642;BME280;76646;51.506;5.304;2024-03-02T06:20:04;99707.66;;;5.40;nan
56642;BME280;76646;51.506;5.304;2024-03-02T06:22:31;99721.38;;;5.44;nan
56642;BME280;76646;51.506;5.304;2024-03-02T06:24:57;99700.81;;;5.28;nan
56642;BME280;76646;51.506;5.304;2024-03-02T06:27:22;99714.94;;;5.36;nan
56642;BME280;76646;51.506;5.304;2024-03-02T06:29:49;99701.28;;;5.33;nan
56642;BME280;76646;51.506;5.304;2024-03-02T06:32:14;99723.28;;;5.42;nan
56642;BME280;76646;51.506;5.304;2024-03-02T06:34:40;99705.91;;;5.41;nan
56642;BME280;76646;51.506;5.304;2024-03-02T06:37:06;99704.16;;;5.30;nan
56642;BME280;76646;51.506;5.304;2024-03-02T06:39:32;99695.91;;;5.34;nan
56642;BME280;76646;51.506;5.304;2024-03-02T06:41:59;99712.28;;;5.48;nan
56642;BME280;76646;51.506;5.304;2024-03-02T06:44:28;99730.50;;;5.70;nan
56642;BME280;76646;51.506;5.304;2024-03-02T06:46:53;99716.53;;;6.02;nan
56642;BME280;76646;51.506;5.304;2024-03-02T06:49:19;99727.00;;;5.81;nan
56642;BME280;76646;51.506;5.304;2024-03-02T06:51:47;99724.63;;;5.78;nan
56642;BME280;76646;51.506;5.304;2024-03-02T06:54:13;99713.75;;;5.82;nan
56642;BME280;76646;51.506;5.304;2024-03-02T06:56:38;99660.50;;;5.82;nan
56642;BME280;76646;51.506;5.304;2024-03-02T06:59:06;99720.94;;;6.73;nan
56642;BME280;76646;51.506;5.304;2024-03-02T07:01:32;99729.81;;;6.41;nan
56642;BME280;76646;51.506;5.304;2024-03-02T07:03:58;99753.53;;;6.70;nan
56642;BME280;76646;51.506;5.304;2024-03-02T07:06:25;99681.25;;;6.56;nan
56642;BME280;76646;51.506;5.304;2024-03-02T07:08:51;99724.31;;;6.94;nan
56642;BME280;76646;51.506;5.304;2024-03-02T07:11:17;99756.41;;;7.17;nan
56642;BME280;76646;51.506;5.304;2024-03-02T07:13:43;99744.47;;;6.93;nan
56642;BME280;76646;51.506;5.304;2024-03-02T07:16:08;99756.91;;;6.82;nan
56642;BME280;76646;51.506;5.304;2024-03-02T07:18:48;99649.50;;;5.88;nan
56642;BME280;76646;51.506;5.304;2024-03-02T07:21:17;99744.94;;;6.58;nan
56642;BME280;76646;51.506;5.304;2024-03-02T07:23:44;99747.66;;;6.57;nan
56642;BME280;76646;51.506;5.304;2024-03-02T07:26:09;99757.94;;;6.29;nan
56642;BME280;76646;51.506;5.304;2024-03-02T07:28:37;99744.06;;;6.17;nan
56642;BME280;76646;51.506;5.304;2024-03-02T07:31:04;99772.22;;;6.15;nan
56642;BME280;76646;51.506;5.304;2024-03-02T07:33:32;99766.88;;;5.96;nan
56642;BME280;76646;51.506;5.304;2024-03-02T07:36:00;99787.88;;;6.06;nan
56642;BME280;76646;51.506;5.304;2024-03-02T07:38:31;99760.34;;;5.79;nan
56642;BME280;76646;51.506;5.304;2024-03-02T07:41:00;99744.31;;;5.72;nan
56642;BME280;76646;51.506;5.304;2024-03-02T07:43:28;99776.88;;;5.91;nan
56642;BME280;76646;51.506;5.304;2024-03-02T07:45:53;99772.97;;;5.85;nan
56642;BME280;76646;51.506;5.304;2024-03-02T07:48:20;99751.00;;;5.65;nan
56642;BME280;76646;51.506;5.304;2024-03-02T07:50:45;99774.31;;;5.79;nan
56642;BME280;76646;51.506;5.304;2024-03-02T07:53:11;99772.97;;;5.85;nan
56642;BME280;76646;51.506;5.304;2024-03-02T07:55:37;99788.34;;;6.11;nan
56642;BME280;76646;51.506;5.304;2024-03-02T07:58:04;99778.66;;;6.63;nan
56642;BME280;76646;51.506;5.304;2024-03-02T08:00:30;99773.41;;;7.23;nan
56642;BME280;76646;51.506;5.304;2024-03-02T08:02:57;99729.84;;;7.59;nan
56642;BME280;76646;51.506;5.304;2024-03-02T08:05:22;99762.09;;;7.42;nan
56642;BME280;76646;51.506;5.304;2024-03-02T08:07:48;99770.50;;;7.26;nan
56642;BME280;76646;51.506;5.304;2024-03-02T08:10:20;99731.25;;;7.63;nan
56642;BME280;76646;51.506;5.304;2024-03-02T08:12:47;99756.72;;;7.43;nan
56642;BME280;76646;51.506;5.304;2024-03-02T08:15:13;99736.09;;;7.48;nan
56642;BME280;76646;51.506;5.304;2024-03-02T08:17:40;99768.31;;;7.60;nan
56642;BME280;76646;51.506;5.304;2024-03-02T08:20:13;99759.59;;;7.79;nan
56642;BME280;76646;51.506;5.304;2024-03-02T08:22:41;99764.72;;;7.71;nan
56642;BME280;76646;51.506;5.304;2024-03-02T08:25:07;99765.25;;;7.84;nan
56642;BME280;76646;51.506;5.304;2024-03-02T08:27:33;99765.44;;;8.20;nan
56642;BME280;76646;51.506;5.304;2024-03-02T08:29:59;99779.50;;;8.58;nan
56642;BME280;76646;51.506;5.304;2024-03-02T08:32:25;99771.81;;;8.74;nan
56642;BME280;76646;51.506;5.304;2024-03-02T08:34:51;99780.41;;;9.22;nan
56642;BME280;76646;51.506;5.304;2024-03-02T08:37:18;99764.22;;;9.16;nan
56642;BME280;76646;51.506;5.304;2024-03-02T08:39:47;99784.16;;;10.35;nan
56642;BME280;76646;51.506;5.304;2024-03-02T08:42:13;99766.25;;;10.46;nan
56642;BME280;76646;51.506;5.304;2024-03-02T08:44:39;99768.41;;;10.93;nan
56642;BME280;76646;51.506;5.304;2024-03-02T08:47:05;99791.88;;;10.54;nan
56642;BME280;76646;51.506;5.304;2024-03-02T08:49:31;99767.66;;;10.33;nan
56642;BME280;76646;51.506;5.304;2024-03-02T08:51:57;99780.53;;;11.12;nan
56642;BME280;76646;51.506;5.304;2024-03-02T08:54:25;99792.25;;;11.93;nan
56642;BME280;76646;51.506;5.304;2024-03-02T08:56:52;99783.59;;;11.42;nan
56642;BME280;76646;51.506;5.304;2024-03-02T08:59:18;99744.47;;;10.53;nan
56642;BME280;76646;51.506;5.304;2024-03-02T09:01:44;99761.63;;;10.48;nan
56642;BME280;76646;51.506;5.304;2024-03-02T09:04:10;99774.19;;;11.72;nan
56642;BME280;76646;51.506;5.304;2024-03-02T09:06:38;99763.47;;;10.99;nan
56642;BME280;76646;51.506;5.304;2024-03-02T09:09:04;99786.63;;;11.05;nan
56642;BME280;76646;51.506;5.304;2024-03-02T09:11:30;99758.59;;;11.28;nan
56642;BME280;76646;51.506;5.304;2024-03-02T09:13:57;99784.63;;;11.98;nan
56642;BME280;76646;51.506;5.304;2024-03-02T09:16:25;99785.91;;;12.27;nan
56642;BME280;76646;51.506;5.304;2024-03-02T09:18:56;99785.78;;;12.12;nan
56642;BME280;76646;51.506;5.304;2024-03-02T09:21:22;99784.22;;;11.20;nan
56642;BME280;76646;51.506;5.304;2024-03-02T09:23:48;99785.25;;;11.59;nan
56642;BME280;76646;51.506;5.304;2024-03-02T09:26:14;99771.16;;;11.26;nan
56642;BME280;76646;51.506;5.304;2024-03-02T09:28:43;99798.59;;;11.42;nan
56642;BME280;76646;51.506;5.304;2024-03-02T09:31:10;99786.41;;;11.81;nan
56642;BME280;76646;51.506;5.304;2024-03-02T09:33:37;99789.06;;;11.65;nan
56642;BME280;76646;51.506;5.304;2024-03-02T09:36:05;99805.78;;;12.15;nan
56642;BME280;76646;51.506;5.304;2024-03-02T09:38:34;99794.47;;;11.31;nan
56642;BME280;76646;51.506;5.304;2024-03-02T09:41:00;99775.78;;;11.32;nan
56642;BME280;76646;51.506;5.304;2024-03-02T09:43:26;99751.59;;;11.03;nan
56642;BME280;76646;51.506;5.304;2024-03-02T09:45:53;99791.31;;;11.35;nan
56642;BME280;76646;51.506;5.304;2024-03-02T09:48:19;99750.75;;;11.02;nan
56642;BME280;76646;51.506;5.304;2024-03-02T09:50:46;99737.03;;;9.96;nan
56642;BME280;76646;51.506;5.304;2024-03-02T09:53:12;99715.03;;;10.13;nan
56642;BME280;76646;51.506;5.304;2024-03-02T09:55:39;99786.25;;;10.05;nan
56642;BME280;76646;51.506;5.304;2024-03-02T09:58:09;99788.00;;;10.22;nan
56642;BME280;76646;51.506;5.304;2024-03-02T10:00:36;99799.56;;;10.21;nan
56642;BME280;76646;51.506;5.304;2024-03-02T10:03:02;99773.16;;;9.95;nan
56642;BME280;76646;51.506;5.304;2024-03-02T10:05:28;99762.63;;;9.77;nan
56642;BME280;76646;51.506;5.304;2024-03-02T10:08:03;99775.69;;;10.05;nan
56642;BME280;76646;51.506;5.304;2024-03-02T10:10:40;99757.59;;;9.66;nan
56642;BME280;76646;51.506;5.304;2024-03-02T10:13:07;99787.38;;;10.46;nan
56642;BME280;76646;51.506;5.304;2024-03-02T10:15:36;99759.34;;;10.54;nan
56642;BME280;76646;51.506;5.304;2024-03-02T10:18:08;99787.44;;;10.63;nan
56642;BME280;76646;51.506;5.304;2024-03-02T10:20:35;99744.50;;;10.61;nan
56642;BME280;76646;51.506;5.304;2024-03-02T10:23:15;99755.28;;;11.26;nan
56642;BME280;76646;51.506;5.304;2024-03-02T10:25:43;99762.94;;;12.11;nan
56642;BME280;76646;51.506;5.304;2024-03-02T10:28:09;99740.41;;;10.66;nan
56642;BME280;76646;51.506;5.304;2024-03-02T10:30:35;99756.97;;;11.60;nan
56642;BME280;76646;51.506;5.304;2024-03-02T10:33:02;99756.66;;;11.96;nan
56642;BME280;76646;51.506;5.304;2024-03-02T10:35:30;99686.69;;;11.49;nan
56642;BME280;76646;51.506;5.304;2024-03-02T10:38:03;99770.19;;;12.81;nan
56642;BME280;76646;51.506;5.304;2024-03-02T10:40:31;99749.38;;;12.70;nan
56642;BME280;76646;51.506;5.304;2024-03-02T10:42:58;99755.66;;;12.61;nan
56642;BME280;76646;51.506;5.304;2024-03-02T10:45:24;99747.09;;;11.87;nan
56642;BME280;76646;51.506;5.304;2024-03-02T10:47:50;99765.06;;;12.16;nan
56642;BME280;76646;51.506;5.304;2024-03-02T10:50:18;99742.63;;;11.87;nan
56642;BME280;76646;51.506;5.304;2024-03-02T10:52:45;99766.38;;;11.38;nan
56642;BME280;76646;51.506;5.304;2024-03-02T10:55:15;99738.94;;;11.23;nan
56642;BME280;76646;51.506;5.304;2024-03-02T10:57:45;99709.50;;;11.09;nan
56642;BME280;76646;51.506;5.304;2024-03-02T11:00:16;99737.44;;;11.61;nan
56642;BME280;76646;51.506;5.304;2024-03-02T11:02:55;99732.00;;;11.71;nan
56642;BME280;76646;51.506;5.304;2024-03-02T11:05:29;99750.19;;;12.07;nan
56642;BME280;76646;51.506;5.304;2024-03-02T11:08:22;99749.69;;;12.19;nan
56642;BME280;76646;51.506;5.304;2024-03-02T11:10:57;99728.91;;;12.87;nan
56642;BME280;76646;51.506;5.304;2024-03-02T11:13:28;99749.25;;;12.47;nan
56642;BME280;76646;51.506;5.304;2024-03-02T11:16:02;99742.75;;;12.66;nan
56642;BME280;76646;51.506;5.304;2024-03-02T11:18:31;99752.25;;;12.44;nan
56642;BME280;76646;51.506;5.304;2024-03-02T11:20:59;99715.91;;;12.21;nan
56642;BME280;76646;51.506;5.304;2024-03-02T11:23:34;99734.31;;;12.93;nan
56642;BME280;76646;51.506;5.304;2024-03-02T11:26:20;99752.75;;;12.87;nan
56642;BME280;76646;51.506;5.304;2024-03-02T11:28:46;99745.50;;;12.81;nan
56642;BME280;76646;51.506;5.304;2024-03-02T11:31:12;99754.63;;;12.78;nan
56642;BME280;76646;51.506;5.304;2024-03-02T11:33:39;99720.38;;;12.21;nan
56642;BME280;76646;51.506;5.304;2024-03-02T11:36:09;99741.97;;;12.49;nan
56642;BME280;76646;51.506;5.304;2024-03-02T11:38:36;99726.03;;;12.18;nan
56642;BME280;76646;51.506;5.304;2024-03-02T11:41:06;99739.31;;;12.49;nan
56642;BME280;76646;51.506;5.304;2024-03-02T11:43:37;99723.88;;;12.61;nan
56642;BME280;76646;51.506;5.304;2024-03-02T11:46:06;99732.88;;;12.83;nan
56642;BME280;76646;51.506;5.304;2024-03-02T11:48:39;99713.00;;;12.87;nan
56642;BME280;76646;51.506;5.304;2024-03-02T11:51:06;99703.72;;;12.52;nan
56642;BME280;76646;51.506;5.304;2024-03-02T11:53:34;99732.66;;;12.69;nan
56642;BME280;76646;51.506;5.304;2024-03-02T11:56:02;99703.28;;;12.40;nan
56642;BME280;76646;51.506;5.304;2024-03-02T11:58:27;99719.19;;;12.32;nan
56642;BME280;76646;51.506;5.304;2024-03-02T12:00:54;99726.03;;;12.10;nan
56642;BME280;76646;51.506;5.304;2024-03-02T12:03:24;99688.34;;;11.91;nan
56642;BME280;76646;51.506;5.304;2024-03-02T12:05:52;99701.75;;;11.90;nan
56642;BME280;76646;51.506;5.304;2024-03-02T12:08:19;99702.22;;;11.85;nan
56642;BME280;76646;51.506;5.304;2024-03-02T12:10:58;99696.81;;;11.87;nan
56642;BME280;76646;51.506;5.304;2024-03-02T12:13:26;99691.47;;;12.11;nan
56642;BME280;76646;51.506;5.304;2024-03-02T12:15:54;99618.16;;;12.03;nan
56642;BME280;76646;51.506;5.304;2024-03-02T12:18:23;99680.09;;;12.42;nan
56642;BME280;76646;51.506;5.304;2024-03-02T12:20:50;99678.91;;;12.53;nan
56642;BME280;76646;51.506;5.304;2024-03-02T12:23:22;99656.31;;;12.25;nan
56642;BME280;76646;51.506;5.304;2024-03-02T12:25:49;99653.44;;;12.35;nan
56642;BME280;76646;51.506;5.304;2024-03-02T12:28:15;99649.13;;;12.03;nan
56642;BME280;76646;51.506;5.304;2024-03-02T12:30:41;99662.75;;;12.31;nan
56642;BME280;76646;51.506;5.304;2024-03-02T12:33:10;99593.34;;;12.36;nan
56642;BME280;76646;51.506;5.304;2024-03-02T12:35:36;99597.56;;;12.22;nan
56642;BME280;76646;51.506;5.304;2024-03-02T12:38:04;99660.22;;;12.38;nan
56642;BME280;76646;51.506;5.304;2024-03-02T12:40:31;99617.63;;;12.79;nan
56642;BME280;76646;51.506;5.304;2024-03-02T12:42:57;99620.22;;;12.64;nan
56642;BME280;76646;51.506;5.304;2024-03-02T12:45:24;99650.59;;;12.76;nan
56642;BME280;76646;51.506;5.304;2024-03-02T12:47:51;99635.84;;;12.50;nan
56642;BME280;76646;51.506;5.304;2024-03-02T12:50:17;99633.63;;;12.62;nan
56642;BME280;76646;51.506;5.304;2024-03-02T12:52:43;99651.50;;;12.91;nan
56642;BME280;76646;51.506;5.304;2024-03-02T12:55:10;99623.53;;;12.58;nan
56642;BME280;76646;51.506;5.304;2024-03-02T12:57:36;99632.03;;;12.76;nan
56642;BME280;76646;51.506;5.304;2024-03-02T13:00:04;99643.63;;;12.44;nan
56642;BME280;76646;51.506;5.304;2024-03-02T13:02:41;99602.72;;;12.15;nan
56642;BME280;76646;51.506;5.304;2024-03-02T13:05:08;99631.75;;;12.40;nan
56642;BME280;76646;51.506;5.304;2024-03-02T13:07:37;99617.81;;;12.46;nan
56642;BME280;76646;51.506;5.304;2024-03-02T13:10:03;99626.25;;;12.41;nan
56642;BME280;76646;51.506;5.304;2024-03-02T13:12:30;99628.28;;;12.39;nan
56642;BME280;76646;51.506;5.304;2024-03-02T13:14:58;99617.22;;;12.27;nan
56642;BME280;76646;51.506;5.304;2024-03-02T13:17:24;99604.34;;;12.24;nan
56642;BME280;76646;51.506;5.304;2024-03-02T13:19:59;99609.63;;;12.64;nan
56642;BME280;76646;51.506;5.304;2024-03-02T13:22:26;99604.16;;;12.57;nan
56642;BME280;76646;51.506;5.304;2024-03-02T13:24:52;99607.28;;;12.61;nan
56642;BME280;76646;51.506;5.304;2024-03-02T13:27:21;99578.06;;;12.46;nan
56642;BME280;76646;51.506;5.304;2024-03-02T13:29:47;99596.81;;;12.44;nan
56642;BME280;76646;51.506;5.304;2024-03-02T13:32:16;99562.66;;;12.18;nan
56642;BME280;76646;51.506;5.304;2024-03-02T13:34:44;99581.34;;;12.25;nan